EST,Max TemperatureF,Mean TemperatureF,Min TemperatureF,Max Dew PointF,MeanDew PointF,Min DewpointF,Max Humidity, Mean Humidity, Min Humidity, Max Sea Level PressureIn, Mean Sea Level PressureIn, Min Sea Level PressureIn, Max VisibilityMiles, Mean VisibilityMiles, Min VisibilityMiles, Max Wind SpeedMPH, Mean Wind SpeedMPH, Max Gust SpeedMPH,PrecipitationIn, CloudCover, Events, WindDirDegrees
2013-2-1,15,12,8,8,1,-5,72,64,54,30.04,29.76,29.45,10,7,2,16,9,25,0.00,7,Snow,272
2013-2-2,19,10,2,11,2,-7,83,66,54,30.10,30.03,29.97,10,10,7,10,6,17,0.00,6,Snow,208
2013-2-3,24,13,2,10,6,-2,86,71,48,29.98,29.86,29.68,10,10,5,7,3,,0.00,1,,319
2013-2-4,18,11,4,10,0,-14,85,58,36,29.86,29.72,29.64,10,8,1,24,7,33,0.00,5,Snow,265
2013-2-5,16,6,-4,2,-8,-13,74,52,26,29.97,29.91,29.85,10,10,10,7,2,,0.00,2,,166
2013-2-6,22,14,6,18,3,-10,84,59,33,30.29,29.99,29.82,10,8,0,16,5,24,0.00,6,Snow,251
2013-2-7,7,2,-4,-7,-12,-16,66,51,35,30.52,30.45,30.31,10,10,10,12,6,,0.00,3,,355
2013-2-8,20,12,5,16,8,-8,87,77,52,30.41,30.18,29.96,10,4,1,16,3,25,0.00,8,Snow,36
2013-2-9,14,8,2,9,-1,-8,84,63,49,30.28,30.11,29.95,10,7,2,22,16,30,0.00,3,Snow,342
2013-2-10,23,6,-12,3,-7,-18,79,57,26,30.42,30.33,30.24,10,10,7,7,1,,0.00,0,,210
2013-2-11,35,22,10,32,16,-1,93,67,29,30.23,29.83,29.55,10,8,1,20,8,28,0.00,6,Snow,182
2013-2-12,35,32,30,29,27,23,89,79,68,29.77,29.63,29.53,10,6,1,15,8,26,0.00,8,Snow,239
2013-2-13,30,28,25,24,23,21,84,79,71,29.80,29.76,29.73,10,8,3,10,5,,0.00,8,Rain-Snow,285
2013-2-14,31,27,23,23,19,14,90,72,50,29.92,29.84,29.72,10,10,4,7,1,,0.00,7,Snow,272
2013-2-15,38,32,26,30,21,15,89,65,49,29.92,29.86,29.80,10,9,1,15,6,23,0.00,7,Rain-Snow,217
2013-2-16,30,22,14,16,8,2,79,56,43,29.97,29.93,29.87,10,10,10,14,6,17,0.00,4,Snow,308
2013-2-17,14,10,7,4,0,-2,79,65,58,29.86,29.68,29.57,10,10,3,22,10,33,0.00,7,Snow,314
2013-2-18,17,10,3,-2,-7,-12,69,50,28,30.10,29.97,29.73,10,9,5,17,10,25,0.00,3,,267
2013-2-19,38,20,2,30,7,-6,92,51,24,30.10,29.86,29.57,10,9,1,21,5,29,0.00,5,Snow,181
2013-2-20,32,25,17,30,18,12,92,76,64,29.68,29.57,29.53,10,4,1,20,8,31,0.00,8,Snow,243
2013-2-21,19,13,7,14,6,1,86,76,66,30.28,29.95,29.69,10,5,0,14,6,20,0.00,8,Snow,300
2013-2-22,30,21,12,19,16,9,89,77,58,30.41,30.31,30.23,10,10,4,12,5,16,0.00,5,Snow,322
2013-2-23,31,26,21,28,23,16,90,77,59,30.23,30.05,29.89,10,6,1,17,9,23,0.00,8,Snow,162
2013-2-24,34,32,30,30,28,26,91,87,83,29.90,29.82,29.75,10,7,1,10,4,18,0.00,8,Rain-Snow,233
2013-2-25,33,31,29,28,27,25,90,82,71,30.20,30.08,29.91,10,8,2,9,5,,0.00,8,Snow,342
2013-2-26,38,32,27,28,26,20,92,74,48,30.30,30.24,30.14,10,8,2,7,2,,0.00,8,Snow,141
2013-2-27,36,32,28,29,25,22,90,75,63,30.13,29.89,29.65,10,8,0,17,7,25,0.00,6,Snow,93
2013-2-28,40,34,29,31,28,25,92,80,61,29.64,29.58,29.55,10,10,7,12,5,,0.00,7,Rain-Snow,7